Time;durP1;ratioP1;P1;durP2;ratioP2;P2;SDS_P1;SDS_P2;PMS_P1;PMS_P2;Temp;Humidity;BMP_temperature;BMP_pressure;BME280_temperature;BME280_humidity;BME280_pressure;Samples;Min_cycle;Max_cycle;Signal;HPM_P1;HPM_P2
2022/04/21 00:00:07;;;;;;;7.25;4.65;;;6.40;74.50;;;;;;5025797;28;20034;-83
2022/04/21 00:02:33;;;;;;;8.10;4.68;;;6.40;74.70;;;;;;5010873;28;20017;-84
2022/04/21 00:04:59;;;;;;;8.45;4.95;;;6.30;75.00;;;;;;5027798;28;20111;-83
2022/04/21 00:07:25;;;;;;;9.68;5.18;;;6.20;75.20;;;;;;5023233;28;20497;-83
2022/04/21 00:09:50;;;;;;;9.75;4.35;;;6.20;75.90;;;;;;5023633;28;20025;-83
2022/04/21 00:12:16;;;;;;;8.13;4.80;;;6.20;75.90;;;;;;5002107;28;20541;-84
2022/04/21 00:14:42;;;;;;;8.00;5.03;;;6.10;76.30;;;;;;5007014;28;20037;-83
2022/04/21 00:17:10;;;;;;;9.30;5.25;;;6.10;76.40;;;;;;5009721;28;20156;-83
2022/04/21 00:19:37;;;;;;;7.82;4.75;;;6.00;76.80;;;;;;5023671;28;20034;-84
2022/04/21 00:24:50;;;;;;;9.50;5.47;;;6.00;77.40;;;;;;5021472;28;20032;-83
2022/04/21 00:27:16;;;;;;;10.63;6.07;;;5.90;77.50;;;;;;5009846;28;20139;-83
2022/04/21 00:29:45;;;;;;;9.32;5.88;;;5.90;78.00;;;;;;5232268;22;20037;-72
2022/04/21 00:32:10;;;;;;;9.77;4.97;;;5.90;78.90;;;;;;5030308;28;20028;-72
2022/04/21 00:34:42;;;;;;;8.68;5.45;;;5.80;79.70;;;;;;5003759;28;20030;-70
2022/04/21 00:37:08;;;;;;;8.60;4.68;;;5.70;80.30;;;;;;4996875;28;20486;-69
2022/04/21 00:39:34;;;;;;;7.78;5.00;;;5.70;80.60;;;;;;5003941;28;20077;-71
2022/04/21 00:42:09;;;;;;;9.32;5.30;;;5.70;81.10;;;;;;4993381;28;20498;-72
2022/04/21 00:44:37;;;;;;;11.95;6.47;;;5.70;81.40;;;;;;4996756;28;20021;-73
2022/04/21 00:47:10;;;;;;;9.52;5.57;;;5.70;82.00;;;;;;5013660;28;20430;-73
2022/04/21 00:49:36;;;;;;;10.38;5.43;;;5.60;82.30;;;;;;5016713;28;20025;-73
2022/04/21 00:52:03;;;;;;;10.30;5.53;;;5.60;82.70;;;;;;5013214;28;20026;-72
2022/04/21 00:54:32;;;;;;;12.10;6.18;;;5.60;83.30;;;;;;5012366;28;20036;-72
2022/04/21 00:57:00;;;;;;;9.65;5.57;;;5.60;83.60;;;;;;5010810;28;20028;-71
2022/04/21 00:59:26;;;;;;;10.50;5.55;;;5.60;83.90;;;;;;5007460;28;20069;-71
2022/04/21 01:04:39;;;;;;;8.32;5.03;;;5.60;84.60;;;;;;5009070;28;20761;-71
2022/04/21 01:07:08;;;;;;;7.53;4.68;;;5.70;85.00;;;;;;5010891;28;20046;-72
2022/04/21 01:09:35;;;;;;;9.65;5.05;;;5.60;84.60;;;;;;5010034;28;20101;-71
2022/04/21 01:12:09;;;;;;;9.00;4.63;;;5.60;84.60;;;;;;5005972;28;20510;-72
2022/04/21 01:14:37;;;;;;;10.05;5.18;;;5.60;84.70;;;;;;5009241;28;20030;-71
2022/04/21 01:17:07;;;;;;;14.43;5.57;;;5.60;84.50;;;;;;5009288;28;20121;-72
2022/04/21 01:19:33;;;;;;;6.95;4.45;;;5.60;84.20;;;;;;4991193;28;20034;-71
2022/04/21 01:21:59;;;;;;;7.13;4.75;;;5.50;85.00;;;;;;5002242;28;20022;-72
2022/04/21 01:24:26;;;;;;;10.65;5.90;;;5.50;84.90;;;;;;5008286;28;20029;-72
2022/04/21 01:26:54;;;;;;;7.18;5.00;;;5.50;84.90;;;;;;5011750;28;20406;-71
2022/04/21 01:29:22;;;;;;;13.57;5.25;;;5.50;84.50;;;;;;5006164;28;20030;-72
2022/04/21 01:31:48;;;;;;;12.40;5.85;;;5.50;84.60;;;;;;5005541;28;20030;-68
2022/04/21 01:34:14;;;;;;;9.73;5.68;;;5.50;85.00;;;;;;5010172;28;20022;-72
2022/04/21 01:42:18;;;;;;;10.68;5.32;;;5.40;87.50;;;;;;5010471;28;20040;-71
2022/04/21 01:44:43;;;;;;;8.55;5.50;;;5.40;87.70;;;;;;5008503;28;20494;-72
2022/04/21 01:47:15;;;;;;;8.55;5.47;;;5.30;87.90;;;;;;4991015;28;20029;-70
2022/04/21 01:49:41;;;;;;;12.13;5.82;;;5.30;88.40;;;;;;5007472;28;20068;-71
2022/04/21 01:52:06;;;;;;;12.93;5.10;;;5.30;89.40;;;;;;4992792;28;20046;-69
2022/04/21 01:54:32;;;;;;;9.40;5.32;;;5.30;89.40;;;;;;4993823;28;20057;-70
2022/04/21 01:56:58;;;;;;;10.20;5.35;;;5.20;89.20;;;;;;5009026;28;20042;-70
2022/04/21 01:59:23;;;;;;;6.72;5.13;;;5.20;90.10;;;;;;5009198;28;20076;-70
2022/04/21 02:01:52;;;;;;;8.50;5.32;;;5.20;90.10;;;;;;5007073;28;20045;-69
2022/04/21 02:04:17;;;;;;;11.13;5.07;;;5.30;90.20;;;;;;5007628;28;20520;-71
2022/04/21 02:06:43;;;;;;;9.15;4.78;;;5.20;90.20;;;;;;5008677;28;20215;-70
2022/04/21 02:09:09;;;;;;;9.82;5.10;;;5.20;90.60;;;;;;5009505;28;20109;-72
2022/04/21 02:11:40;;;;;;;9.02;5.32;;;5.20;90.50;;;;;;5003951;28;20110;-72
2022/04/21 02:14:09;;;;;;;11.75;4.63;;;5.10;91.00;;;;;;5008171;28;20046;-72
2022/04/21 02:16:35;;;;;;;8.05;4.90;;;5.10;91.00;;;;;;4993224;28;20443;-71
2022/04/21 02:19:00;;;;;;;8.13;4.75;;;5.00;91.30;;;;;;4990770;28;20062;-71
2022/04/21 02:21:26;;;;;;;10.75;5.75;;;5.00;91.40;;;;;;5007436;28;20025;-69
2022/04/21 02:23:52;;;;;;;8.05;5.30;;;5.00;91.60;;;;;;5004179;28;20026;-72
2022/04/21 02:26:17;;;;;;;9.95;5.22;;;5.00;91.80;;;;;;5005296;28;20018;-72
2022/04/21 02:28:43;;;;;;;11.25;5.95;;;4.90;91.30;;;;;;5005050;28;20505;-72
2022/04/21 02:31:09;;;;;;;8.20;5.25;;;4.80;91.80;;;;;;5011575;28;20384;-74
2022/04/21 02:33:34;;;;;;;8.07;5.22;;;4.80;92.00;;;;;;5012048;28;20026;-73
2022/04/21 02:36:00;;;;;;;9.98;5.10;;;4.80;92.10;;;;;;5010435;28;20041;-72
2022/04/21 02:38:26;;;;;;;12.25;5.63;;;4.80;92.20;;;;;;5006053;28;20061;-69
2022/04/21 02:40:57;;;;;;;9.15;5.53;;;4.80;92.40;;;;;;4992641;28;20386;-72
2022/04/21 02:43:23;;;;;;;10.82;5.78;;;4.70;92.70;;;;;;5009783;28;20049;-72
2022/04/21 02:45:51;;;;;;;8.18;5.55;;;4.70;93.00;;;;;;5010737;28;20026;-71
2022/04/21 02:48:17;;;;;;;7.88;4.90;;;4.70;93.20;;;;;;5010775;28;20034;-72
2022/04/21 02:50:43;;;;;;;10.15;5.38;;;4.70;93.40;;;;;;4992034;28;20029;-73
2022/04/21 02:53:09;;;;;;;10.90;6.05;;;4.60;93.80;;;;;;4992257;28;20038;-71
2022/04/21 02:58:25;;;;;;;13.20;5.35;;;4.60;94.40;;;;;;5005312;28;20092;-70
2022/04/21 03:00:51;;;;;;;9.93;5.40;;;4.60;94.30;;;;;;4991216;28;20426;-73
2022/04/21 03:03:17;;;;;;;9.20;5.18;;;4.60;94.40;;;;;;5010626;28;20018;-72
2022/04/21 03:05:42;;;;;;;12.25;5.05;;;4.60;94.00;;;;;;5010159;28;20061;-72
2022/04/21 03:08:11;;;;;;;9.48;5.65;;;4.50;94.50;;;;;;5011150;28;20021;-72
2022/04/21 03:10:37;;;;;;;10.38;5.65;;;4.50;95.00;;;;;;5008645;28;20115;-72
2022/04/21 03:13:02;;;;;;;10.15;6.15;;;4.50;95.10;;;;;;4992894;28;20060;-71
2022/04/21 03:15:28;;;;;;;20.13;6.30;;;4.50;94.90;;;;;;5009729;28;20030;-71
2022/04/21 03:17:54;;;;;;;11.70;5.82;;;4.40;95.10;;;;;;5008569;28;20034;-72
2022/04/21 03:25:48;;;;;;;;;;;4.40;95.80;;;;;;5008250;28;20445;-70
2022/04/21 03:28:14;;;;;;;8.55;5.40;;;4.40;95.80;;;;;;4994358;28;20004;-71
2022/04/21 03:30:45;;;;;;;10.77;5.97;;;4.40;95.60;;;;;;5011408;28;20069;-72
2022/04/21 03:33:11;;;;;;;13.10;6.32;;;4.40;96.00;;;;;;5008692;28;20486;-71
2022/04/21 03:35:37;;;;;;;10.50;5.45;;;4.40;96.10;;;;;;5011010;28;20036;-69
2022/04/21 03:38:02;;;;;;;9.52;5.78;;;4.40;96.10;;;;;;5009872;28;20088;-72
2022/04/21 03:40:28;;;;;;;10.07;5.80;;;4.40;96.20;;;;;;5012073;28;20022;-72
2022/04/21 03:42:54;;;;;;;12.40;6.20;;;4.30;95.60;;;;;;5007328;28;20071;-72
2022/04/21 03:45:20;;;;;;;11.10;5.80;;;4.20;96.10;;;;;;5014263;28;20046;-71
2022/04/21 03:47:46;;;;;;;11.25;5.85;;;4.20;96.60;;;;;;4997689;28;20080;-71
2022/04/21 03:50:11;;;;;;;10.77;5.90;;;4.20;97.00;;;;;;4994255;28;20548;-71
2022/04/21 03:52:37;;;;;;;10.13;6.43;;;4.20;97.40;;;;;;5013906;28;20038;-73
2022/04/21 03:55:03;;;;;;;7.88;5.18;;;4.10;97.40;;;;;;4993356;28;20022;-73
2022/04/21 03:57:29;;;;;;;10.35;5.30;;;4.10;97.50;;;;;;5009123;28;20022;-72
2022/04/21 03:59:54;;;;;;;10.43;5.68;;;4.10;98.00;;;;;;5011600;28;20018;-73
2022/04/21 04:02:20;;;;;;;13.98;6.68;;;4.00;98.60;;;;;;5006454;28;20533;-71
2022/04/21 04:04:45;;;;;;;8.52;5.07;;;4.00;98.60;;;;;;5012090;28;20034;-71
2022/04/21 04:12:40;;;;;;;8.90;5.63;;;3.90;99.20;;;;;;5012473;28;19916;-71
2022/04/21 04:15:07;;;;;;;10.57;6.30;;;3.90;99.90;;;;;;5011191;28;20045;-71
2022/04/21 04:17:33;;;;;;;11.05;6.80;;;3.90;99.90;;;;;;5009721;28;20033;-72
2022/04/21 04:20:00;;;;;;;12.02;6.35;;;3.90;99.90;;;;;;5011335;28;20022;-71
2022/04/21 04:22:25;;;;;;;9.68;6.18;;;3.90;99.70;;;;;;5010084;28;20398;-71
2022/04/21 04:24:54;;;;;;;12.85;6.72;;;3.90;99.70;;;;;;5012619;28;20022;-71
2022/04/21 04:27:21;;;;;;;12.07;6.43;;;3.90;99.80;;;;;;5008343;28;20018;-71
2022/04/21 04:29:47;;;;;;;13.65;7.32;;;3.90;99.80;;;;;;5012117;28;20018;-70
2022/04/21 04:32:14;;;;;;;11.63;6.85;;;3.90;99.90;;;;;;4994720;28;20076;-71
2022/04/21 04:34:41;;;;;;;13.57;6.53;;;3.80;99.90;;;;;;5012013;28;20022;-72
2022/04/21 04:37:06;;;;;;;15.05;7.88;;;3.90;99.90;;;;;;5013514;28;20084;-71
2022/04/21 04:39:32;;;;;;;12.05;6.45;;;3.80;99.90;;;;;;5009548;28;20022;-72
2022/04/21 04:42:16;;;;;;;13.68;7.35;;;3.80;99.90;;;;;;5009518;28;20414;-71
2022/04/21 04:44:41;;;;;;;13.77;7.57;;;3.90;99.90;;;;;;4992932;28;20129;-70
2022/04/21 04:47:07;;;;;;;16.30;7.50;;;3.90;99.90;;;;;;5011978;28;20101;-71
2022/04/21 04:49:33;;;;;;;28.75;7.85;;;3.90;99.90;;;;;;5010486;28;20026;-71
2022/04/21 04:51:58;;;;;;;12.15;6.53;;;3.90;99.90;;;;;;5010325;28;20033;-72
2022/04/21 04:54:25;;;;;;;15.25;7.57;;;4.00;99.90;;;;;;4992303;28;20478;-72
2022/04/21 04:56:51;;;;;;;18.83;7.95;;;4.00;99.90;;;;;;5008366;28;20030;-72
2022/04/21 04:59:17;;;;;;;15.63;8.73;;;4.00;99.90;;;;;;4994971;28;20048;-72
2022/04/21 05:01:48;;;;;;;12.15;7.13;;;4.00;99.90;;;;;;5008482;28;20030;-72
2022/04/21 05:04:18;;;;;;;11.38;6.63;;;4.10;99.90;;;;;;5007364;28;20112;-72
2022/04/21 05:06:52;;;;;;;14.80;6.40;;;4.10;99.90;;;;;;5011091;28;20048;-71
2022/04/21 05:09:22;;;;;;;11.38;5.97;;;4.10;99.90;;;;;;5009913;28;20041;-72
2022/04/21 05:11:57;;;;;;;15.10;7.22;;;4.20;99.90;;;;;;5009725;28;20438;-70
2022/04/21 05:14:24;;;;;;;13.40;6.43;;;4.30;99.90;;;;;;5008852;28;20034;-70
2022/04/21 05:16:51;;;;;;;10.23;6.15;;;4.50;99.90;;;;;;5009205;28;20363;-71
2022/04/21 05:19:19;;;;;;;11.77;7.25;;;4.60;99.90;;;;;;4994440;28;20033;-68
2022/04/21 05:21:47;;;;;;;15.07;8.43;;;4.80;99.80;;;;;;5009098;28;20053;-72
2022/04/21 05:24:13;;;;;;;11.35;7.93;;;4.90;99.60;;;;;;5009285;28;20030;-70
2022/04/21 05:26:40;;;;;;;13.32;7.38;;;5.00;99.10;;;;;;4992475;28;20032;-70
2022/04/21 05:31:58;;;;;;;12.95;6.57;;;5.30;98.60;;;;;;5006980;28;20033;-71
2022/04/21 05:34:24;;;;;;;11.55;6.38;;;5.30;98.30;;;;;;5010208;28;20467;-70
2022/04/21 05:36:50;;;;;;;11.23;6.80;;;5.40;97.50;;;;;;4991879;28;20026;-70
2022/04/21 05:39:16;;;;;;;9.15;6.18;;;5.50;97.50;;;;;;4991673;28;20037;-71
2022/04/21 05:41:43;;;;;;;9.68;6.35;;;5.70;97.00;;;;;;5006332;28;20494;-71
2022/04/21 05:44:10;;;;;;;14.30;7.97;;;5.80;96.40;;;;;;5004979;28;20022;-73
2022/04/21 05:46:36;;;;;;;13.88;6.85;;;5.90;96.00;;;;;;5010839;28;20037;-73
2022/04/21 05:49:02;;;;;;;10.35;6.90;;;6.10;95.70;;;;;;5008486;28;20026;-73
2022/04/21 05:51:28;;;;;;;12.63;6.47;;;6.20;95.30;;;;;;5002290;28;20121;-70
2022/04/21 05:53:57;;;;;;;10.93;6.97;;;6.30;95.10;;;;;;5007456;28;20511;-72
2022/04/21 05:56:24;;;;;;;10.60;6.38;;;6.40;95.10;;;;;;4986636;28;20041;-71
2022/04/21 05:58:50;;;;;;;10.30;6.65;;;6.50;94.90;;;;;;5007367;28;20057;-71
2022/04/21 06:01:16;;;;;;;13.68;6.97;;;6.60;95.00;;;;;;5009782;28;20042;-72
2022/04/21 06:03:41;;;;;;;10.95;7.20;;;6.70;94.80;;;;;;5008670;28;20101;-72
2022/04/21 06:06:09;;;;;;;11.75;7.40;;;6.70;94.60;;;;;;5010943;28;20022;-71
2022/04/21 06:08:38;;;;;;;11.63;7.55;;;6.80;94.70;;;;;;5013156;28;20514;-70
2022/04/21 06:11:05;;;;;;;11.52;7.25;;;6.80;94.80;;;;;;4989359;28;20116;-72
2022/04/21 06:13:31;;;;;;;11.52;7.20;;;6.90;94.60;;;;;;5005970;28;20108;-71
2022/04/21 06:15:58;;;;;;;11.98;7.10;;;6.90;94.20;;;;;;5007075;28;20478;-74
2022/04/21 06:18:24;;;;;;;14.85;7.50;;;7.00;94.30;;;;;;5006191;28;20032;-72
2022/04/21 06:20:52;;;;;;;14.13;7.13;;;7.00;94.30;;;;;;5007553;28;20030;-70
2022/04/21 06:23:17;;;;;;;10.98;7.15;;;7.10;94.00;;;;;;4988868;28;20033;-68
2022/04/21 06:25:43;;;;;;;15.18;7.50;;;7.20;94.00;;;;;;4991626;28;20038;-72
2022/04/21 06:28:10;;;;;;;13.30;7.72;;;7.00;94.00;;;;;;5006355;28;20266;-72
2022/04/21 06:30:37;;;;;;;12.07;6.85;;;7.00;93.70;;;;;;5005318;28;20036;-70
2022/04/21 06:33:02;;;;;;;12.48;8.20;;;7.00;94.20;;;;;;5003419;28;20423;-71
2022/04/21 06:35:29;;;;;;;11.48;7.72;;;7.00;94.20;;;;;;4988633;28;20021;-70
2022/04/21 06:37:58;;;;;;;19.90;11.10;;;7.10;93.70;;;;;;5007147;28;20033;-72
2022/04/21 06:40:24;;;;;;;16.52;9.40;;;7.10;93.60;;;;;;5004872;28;20021;-72
2022/04/21 06:42:50;;;;;;;13.23;8.32;;;7.20;93.50;;;;;;4998690;28;20393;-70
2022/04/21 06:48:04;;;;;;;23.70;9.63;;;7.20;93.70;;;;;;4996710;28;20037;-70
2022/04/21 06:50:37;;;;;;;20.45;8.77;;;7.20;93.90;;;;;;5014900;28;20148;-70
2022/04/21 06:53:08;;;;;;;17.65;9.40;;;7.30;93.80;;;;;;5001238;28;20136;-72
2022/04/21 06:55:34;;;;;;;19.08;9.00;;;7.30;93.90;;;;;;5017183;28;20035;-71
2022/04/21 06:58:00;;;;;;;19.65;9.20;;;7.30;94.20;;;;;;5003296;28;20030;-70
2022/04/21 07:00:29;;;;;;;14.52;8.50;;;7.40;94.20;;;;;;5001509;28;20453;-70
2022/04/21 07:02:57;;;;;;;14.52;7.97;;;7.50;94.10;;;;;;5000218;28;20033;-70
2022/04/21 07:05:27;;;;;;;13.32;8.48;;;7.60;93.90;;;;;;5009719;28;20026;-70
2022/04/21 07:07:53;;;;;;;14.00;8.68;;;7.60;93.60;;;;;;5006467;28;20026;-70
2022/04/21 07:10:20;;;;;;;18.67;9.02;;;7.70;93.70;;;;;;5011777;28;20437;-70
2022/04/21 07:12:46;;;;;;;14.20;8.77;;;7.70;93.70;;;;;;5009409;28;20188;-70
2022/04/21 07:15:13;;;;;;;12.05;8.88;;;7.80;94.00;;;;;;5009836;28;20128;-70
2022/04/21 07:17:42;;;;;;;14.93;8.60;;;7.90;94.10;;;;;;5001506;28;20022;-70
2022/04/21 07:20:10;;;;;;;16.52;8.75;;;7.90;93.80;;;;;;5010008;28;20029;-70
2022/04/21 07:22:36;;;;;;;15.57;8.65;;;8.00;93.70;;;;;;5012022;28;20440;-70
2022/04/21 07:25:08;;;;;;;13.30;8.57;;;8.00;93.70;;;;;;5012824;28;20030;-70
2022/04/21 07:27:34;;;;;;;13.10;8.18;;;8.00;93.80;;;;;;5008285;28;20037;-70
2022/04/21 07:30:01;;;;;;;14.00;9.30;;;8.10;94.00;;;;;;5010520;28;20033;-70
2022/04/21 07:32:27;;;;;;;16.95;10.43;;;8.20;94.10;;;;;;5006640;28;20044;-70
2022/04/21 07:34:52;;;;;;;14.45;9.35;;;8.20;94.10;;;;;;5008462;28;20029;-70
2022/04/21 07:37:18;;;;;;;11.80;8.50;;;8.30;93.70;;;;;;5011530;28;20030;-70
2022/04/21 07:39:44;;;;;;;17.02;9.27;;;8.30;94.00;;;;;;5011677;28;20114;-70
2022/04/21 07:42:11;;;;;;;17.90;10.13;;;8.30;94.30;;;;;;5010579;28;20022;-70
2022/04/21 07:44:37;;;;;;;12.35;9.43;;;8.20;94.60;;;;;;5012063;28;20052;-70
2022/04/21 07:47:09;;;;;;;14.05;8.90;;;8.30;94.30;;;;;;5014294;28;20076;-70
2022/04/21 07:49:53;;;;;;;13.98;8.32;;;8.30;94.40;;;;;;5026377;28;20076;-70
2022/04/21 07:55:24;;;;;;;16.70;9.75;;;8.40;94.80;;;;;;5008445;28;20069;-70
2022/04/21 07:57:51;;;;;;;14.55;9.70;;;8.60;94.60;;;;;;5011339;28;20072;-70
2022/04/21 08:00:20;;;;;;;22.23;9.82;;;8.70;94.80;;;;;;5009243;28;20022;-70
2022/04/21 08:02:47;;;;;;;18.10;10.30;;;8.90;94.80;;;;;;5011174;28;20029;-70
2022/04/21 08:05:18;;;;;;;14.65;9.70;;;9.00;94.50;;;;;;5009549;28;20382;-70
2022/04/21 08:07:45;;;;;;;15.77;9.20;;;9.10;93.70;;;;;;5008978;28;20105;-70
2022/04/21 08:10:12;;;;;;;16.65;10.20;;;9.20;94.00;;;;;;5009958;28;20030;-70
2022/04/21 08:12:42;;;;;;;16.00;9.50;;;9.30;94.10;;;;;;5011347;28;20057;-70
2022/04/21 08:15:10;;;;;;;14.25;10.43;;;9.30;93.90;;;;;;5009320;28;20025;-70
2022/04/21 08:17:41;;;;;;;12.55;9.82;;;9.30;93.90;;;;;;5010260;28;20499;-70
2022/04/21 08:20:11;;;;;;;14.75;10.13;;;9.40;92.90;;;;;;5012382;28;20033;-70
2022/04/21 08:22:37;;;;;;;14.43;9.95;;;9.50;91.90;;;;;;5010745;28;20041;-70
2022/04/21 08:33:19;;;;;;;15.15;10.27;;;9.80;91.50;;;;;;5011223;28;20037;-68
2022/04/21 08:35:46;;;;;;;15.68;10.00;;;10.00;91.40;;;;;;5012631;28;20048;-70
2022/04/21 08:38:12;;;;;;;13.77;9.82;;;10.00;91.30;;;;;;5010077;28;20113;-70
2022/04/21 08:40:53;;;;;;;15.15;10.25;;;10.10;91.30;;;;;;5012230;28;20157;-70
2022/04/21 08:43:19;;;;;;;15.30;10.48;;;10.20;91.40;;;;;;5009414;28;20480;-68
2022/04/21 08:45:47;;;;;;;18.83;11.88;;;10.20;91.40;;;;;;5012203;28;20057;-70
2022/04/21 08:48:15;;;;;;;17.83;11.18;;;10.30;91.50;;;;;;5007836;28;20991;-70
2022/04/21 08:50:41;;;;;;;16.65;10.27;;;10.40;91.50;;;;;;5009716;28;20080;-70
2022/04/21 08:53:09;;;;;;;15.02;10.32;;;10.50;91.30;;;;;;5009243;28;20026;-70
2022/04/21 08:55:35;;;;;;;16.70;10.85;;;10.60;91.10;;;;;;5007545;28;20029;-70
2022/04/21 08:58:02;;;;;;;14.35;10.65;;;10.70;91.20;;;;;;5008980;28;20027;-71
2022/04/21 09:00:29;;;;;;;12.95;9.75;;;10.80;91.00;;;;;;5011170;28;20057;-70
2022/04/21 09:02:54;;;;;;;15.13;10.65;;;10.90;90.70;;;;;;5007714;28;20489;-70
2022/04/21 09:05:22;;;;;;;15.73;10.52;;;11.00;90.50;;;;;;5010805;28;20108;-70
2022/04/21 09:07:49;;;;;;;16.45;11.82;;;11.10;90.40;;;;;;5004162;28;20026;-70
2022/04/21 09:10:21;;;;;;;14.52;11.20;;;11.30;90.60;;;;;;5009290;28;20030;-70
2022/04/21 09:12:59;;;;;;;17.83;11.32;;;11.30;90.40;;;;;;5013591;28;20026;-69
2022/04/21 09:15:30;;;;;;;16.48;10.85;;;11.40;90.10;;;;;;5010362;28;20057;-71
2022/04/21 09:18:10;;;;;;;16.85;11.90;;;11.50;90.00;;;;;;5007409;28;20123;-69
2022/04/21 09:20:37;;;;;;;18.08;10.77;;;11.50;90.10;;;;;;5003580;28;20045;-69
2022/04/21 09:23:10;;;;;;;17.48;10.70;;;11.60;90.20;;;;;;4996211;28;20034;-68
2022/04/21 09:25:50;;;;;;;16.25;11.13;;;11.60;89.50;;;;;;5007487;28;20537;-68
2022/04/21 09:28:24;;;;;;;16.20;10.73;;;11.70;89.20;;;;;;5000101;28;20089;-70
2022/04/21 09:30:52;;;;;;;16.85;10.77;;;11.80;88.60;;;;;;5004111;28;20068;-70
2022/04/21 09:33:34;;;;;;;17.30;10.85;;;11.90;88.30;;;;;;5008259;28;20026;-69
2022/04/21 09:36:05;;;;;;;16.65;11.40;;;12.00;87.80;;;;;;5008098;28;20478;-69
2022/04/21 09:38:31;;;;;;;18.33;11.00;;;12.10;87.10;;;;;;5009811;28;20496;-69
2022/04/21 09:41:11;;;;;;;16.98;11.30;;;12.10;86.50;;;;;;5005978;28;20105;-69
2022/04/21 09:43:38;;;;;;;14.90;10.48;;;12.10;86.00;;;;;;5005108;28;20041;-69
2022/04/21 09:46:14;;;;;;;18.13;11.18;;;12.10;85.90;;;;;;5009257;28;20030;-69
2022/04/21 09:48:40;;;;;;;16.45;10.50;;;12.20;85.80;;;;;;5018970;28;20372;-68
2022/04/21 09:51:11;;;;;;;16.90;11.07;;;12.30;86.30;;;;;;5009261;28;20041;-68
2022/04/21 09:53:57;;;;;;;17.35;10.93;;;12.20;85.90;;;;;;5009709;28;20032;-69
2022/04/21 09:56:40;;;;;;;19.60;11.10;;;12.30;85.30;;;;;;5007194;28;20022;-70
2022/04/21 09:59:08;;;;;;;13.80;9.70;;;12.30;85.40;;;;;;5011239;28;20033;-69
2022/04/21 10:01:41;;;;;;;13.55;10.00;;;12.40;84.20;;;;;;5008436;28;20046;-70
2022/04/21 10:04:11;;;;;;;12.63;9.60;;;12.40;83.80;;;;;;5006978;28;20030;-70
2022/04/21 10:06:42;;;;;;;17.02;9.50;;;12.60;83.80;;;;;;5003632;28;20026;-70
2022/04/21 10:09:09;;;;;;;14.88;10.02;;;12.70;82.90;;;;;;5005181;28;20040;-69
2022/04/21 10:11:38;;;;;;;14.80;9.63;;;12.80;82.40;;;;;;5005763;28;20061;-69
2022/04/21 10:14:07;;;;;;;14.48;9.65;;;12.80;81.90;;;;;;5006886;28;20026;-70
2022/04/21 10:16:36;;;;;;;13.10;9.43;;;12.90;81.60;;;;;;5020605;28;20042;-70
2022/04/21 10:19:02;;;;;;;13.80;9.30;;;12.90;81.50;;;;;;5011203;28;20452;-70
2022/04/21 10:21:32;;;;;;;12.82;8.65;;;13.00;79.70;;;;;;5005853;28;20034;-70
2022/04/21 10:23:59;;;;;;;10.45;8.18;;;13.00;79.40;;;;;;5010346;28;20021;-70
2022/04/21 10:26:42;;;;;;;11.68;8.82;;;13.10;79.10;;;;;;5006480;28;20045;-70
2022/04/21 10:29:14;;;;;;;11.57;8.82;;;13.40;78.00;;;;;;5011478;28;20026;-71
2022/04/21 10:31:59;;;;;;;10.50;7.93;;;13.40;76.90;;;;;;5005128;28;20041;-70
2022/04/21 10:34:40;;;;;;;11.75;7.90;;;13.50;76.30;;;;;;5002383;28;20553;-70
2022/04/21 10:37:12;;;;;;;13.95;7.53;;;13.60;75.20;;;;;;5003344;28;20616;-70
2022/04/21 10:39:40;;;;;;;10.90;7.75;;;13.50;74.90;;;;;;5005416;28;20499;-70
2022/04/21 10:42:16;;;;;;;10.20;7.38;;;13.60;74.90;;;;;;5002826;28;20034;-70
2022/04/21 10:44:42;;;;;;;11.23;7.32;;;13.70;74.40;;;;;;5003784;28;20032;-70
2022/04/21 10:47:34;;;;;;;10.35;7.45;;;13.70;73.80;;;;;;5006341;28;20022;-70
2022/04/21 10:50:02;;;;;;;13.07;7.82;;;13.80;73.90;;;;;;5004224;28;20029;-70
2022/04/21 10:57:49;;;;;;;;;;;13.80;72.00;;;;;;5004861;28;20115;-69
2022/04/21 11:00:31;;;;;;;12.02;7.35;;;13.80;72.60;;;;;;5001376;28;19971;-70
2022/04/21 11:03:07;;;;;;;11.77;7.53;;;13.70;73.50;;;;;;4981295;28;20045;-70
2022/04/21 11:05:38;;;;;;;13.43;7.78;;;13.80;73.50;;;;;;5004622;28;20055;-70
2022/04/21 11:08:17;;;;;;;9.57;6.55;;;13.80;72.60;;;;;;5005985;28;20482;-70
2022/04/21 11:10:44;;;;;;;13.23;7.90;;;13.80;72.80;;;;;;5009635;28;20030;-71
2022/04/21 11:13:17;;;;;;;11.00;7.80;;;13.90;73.30;;;;;;5008328;28;20713;-71
2022/04/21 11:15:53;;;;;;;16.75;8.68;;;13.90;73.10;;;;;;5003587;28;20034;-70
2022/04/21 11:18:29;;;;;;;11.50;7.80;;;14.00;72.80;;;;;;5009244;28;20076;-72
2022/04/21 11:21:21;;;;;;;8.77;6.55;;;14.00;72.50;;;;;;5010107;28;20437;-69
2022/04/21 11:23:47;;;;;;;11.55;6.63;;;14.10;73.10;;;;;;5011015;28;20018;-70
2022/04/21 11:26:13;;;;;;;9.80;6.97;;;14.10;72.70;;;;;;5011450;28;20491;-71
2022/04/21 11:28:43;;;;;;;10.25;6.88;;;14.10;72.80;;;;;;5003019;28;20049;-70
2022/04/21 11:31:09;;;;;;;11.23;6.85;;;14.20;72.80;;;;;;5000652;28;20037;-70
2022/04/21 11:33:35;;;;;;;10.40;7.20;;;14.10;72.90;;;;;;5009135;28;20065;-70
2022/04/21 11:36:09;;;;;;;9.40;6.72;;;14.20;73.00;;;;;;5007645;28;20026;-70
2022/04/21 11:38:36;;;;;;;16.52;7.15;;;14.20;72.80;;;;;;5007623;28;20499;-69
2022/04/21 11:41:03;;;;;;;12.75;7.25;;;14.30;72.60;;;;;;5007652;28;20033;-70
2022/04/21 11:43:28;;;;;;;9.98;6.57;;;14.30;72.50;;;;;;5007884;28;20053;-69
2022/04/21 11:46:05;;;;;;;9.52;6.05;;;14.30;72.90;;;;;;5007506;28;20065;-70
2022/04/21 11:48:42;;;;;;;9.85;6.40;;;14.40;72.90;;;;;;5010571;28;20080;-70
2022/04/21 11:51:12;;;;;;;9.10;6.22;;;14.50;72.90;;;;;;5011861;28;20038;-70
2022/04/21 11:53:41;;;;;;;9.73;7.03;;;14.60;73.00;;;;;;5008819;28;20040;-70
2022/04/21 11:56:11;;;;;;;8.75;6.07;;;14.70;72.50;;;;;;5008402;28;20026;-68
2022/04/21 11:58:41;;;;;;;9.38;6.15;;;14.80;72.00;;;;;;5006781;28;20040;-69
2022/04/21 12:06:48;;;;;;;8.93;5.85;;;14.90;71.20;;;;;;5011422;28;20755;-72
2022/04/21 12:09:16;;;;;;;11.00;5.65;;;15.00;70.70;;;;;;5012241;28;20526;-71
2022/04/21 12:11:47;;;;;;;7.03;5.57;;;14.80;71.40;;;;;;5009646;28;20445;-71
2022/04/21 12:14:15;;;;;;;11.25;5.35;;;14.80;71.80;;;;;;5005044;28;20026;-71
2022/04/21 12:16:47;;;;;;;7.65;5.95;;;15.00;71.70;;;;;;5007543;28;20036;-72
2022/04/21 12:19:26;;;;;;;7.68;5.57;;;15.00;71.10;;;;;;5011184;28;20471;-71
2022/04/21 12:22:11;;;;;;;6.97;5.40;;;15.10;71.10;;;;;;5005738;28;20040;-71
2022/04/21 12:24:44;;;;;;;7.50;6.00;;;15.10;70.70;;;;;;5005672;28;20023;-71
2022/04/21 12:27:28;;;;;;;6.53;5.70;;;15.00;71.00;;;;;;5014635;28;20517;-72
2022/04/21 12:30:03;;;;;;;12.43;7.07;;;14.90;71.60;;;;;;5004885;28;20033;-72
2022/04/21 12:32:34;;;;;;;8.10;5.80;;;14.90;71.30;;;;;;5008111;28;20030;-71
2022/04/21 12:35:08;;;;;;;8.50;5.68;;;15.00;71.20;;;;;;5010162;28;20046;-73
2022/04/21 12:37:39;;;;;;;8.88;5.88;;;15.00;71.40;;;;;;5009129;28;20444;-71
2022/04/21 12:40:10;;;;;;;9.60;6.30;;;15.00;71.20;;;;;;5010562;28;20030;-72
2022/04/21 12:42:37;;;;;;;6.75;4.90;;;15.10;71.30;;;;;;5009584;28;20470;-72
2022/04/21 12:45:03;;;;;;;7.78;5.65;;;15.20;71.00;;;;;;5043090;23;20107;-72
2022/04/21 12:47:29;;;;;;;8.48;6.38;;;15.20;70.80;;;;;;5048113;28;20022;-71
2022/04/21 12:50:08;;;;;;;9.38;4.55;;;15.20;70.50;;;;;;5040513;28;20040;-69
2022/04/21 12:52:40;;;;;;;8.48;5.40;;;15.30;70.80;;;;;;5050599;28;20037;-69
2022/04/21 12:55:22;;;;;;;8.48;5.07;;;15.30;70.10;;;;;;5047810;28;21295;-73
2022/04/21 12:58:10;;;;;;;5.95;4.93;;;15.40;70.40;;;;;;5047829;28;20039;-72
2022/04/21 13:00:45;;;;;;;7.43;4.85;;;15.40;70.30;;;;;;5049746;28;20033;-69
2022/04/21 13:03:14;;;;;;;6.50;4.78;;;15.50;70.20;;;;;;5047982;28;20081;-71
2022/04/21 13:05:47;;;;;;;10.05;5.68;;;15.50;70.00;;;;;;5050606;28;20468;-71
2022/04/21 13:08:13;;;;;;;8.13;4.93;;;15.40;70.10;;;;;;5047420;28;20025;-72
2022/04/21 13:10:39;;;;;;;7.97;4.40;;;15.60;69.90;;;;;;5064895;28;20159;-71
2022/04/21 13:13:04;;;;;;;7.30;5.15;;;15.70;69.10;;;;;;5064551;28;20047;-72
2022/04/21 13:15:30;;;;;;;8.02;4.47;;;15.80;68.50;;;;;;5042969;28;20056;-71
2022/04/21 13:17:56;;;;;;;12.05;5.15;;;15.70;68.60;;;;;;5049186;28;20053;-71
2022/04/21 13:23:09;;;;;;;5.80;4.47;;;15.70;68.90;;;;;;5049219;28;20055;-70
2022/04/21 13:25:35;;;;;;;6.50;4.95;;;15.70;68.90;;;;;;5047203;28;20104;-71
2022/04/21 13:28:00;;;;;;;8.98;5.13;;;15.80;68.40;;;;;;5043994;28;20226;-71
2022/04/21 13:30:28;;;;;;;5.85;4.70;;;15.90;68.90;;;;;;5048171;28;20029;-71
2022/04/21 13:35:40;;;;;;;5.07;3.92;;;16.00;68.40;;;;;;5049274;28;20083;-72
2022/04/21 13:38:06;;;;;;;4.63;4.07;;;16.10;67.80;;;;;;5047753;28;20461;-71
2022/04/21 13:40:32;;;;;;;5.78;4.00;;;16.10;68.20;;;;;;5050200;28;20116;-71
2022/04/21 13:42:57;;;;;;;5.53;3.95;;;16.00;68.60;;;;;;5047911;28;20025;-71
2022/04/21 13:45:23;;;;;;;4.38;3.45;;;16.10;68.90;;;;;;5046311;28;20223;-71
2022/04/21 13:47:49;;;;;;;5.80;3.75;;;16.10;68.70;;;;;;5043145;28;20024;-72
2022/04/21 13:50:14;;;;;;;8.82;3.63;;;16.20;68.50;;;;;;5043649;28;20040;-72